Time;durP1;ratioP1;P1;durP2;ratioP2;P2;SDS_P1;SDS_P2;PMS_P1;PMS_P2;Temp;Humidity;BMP_temperature;BMP_pressure;BME280_temperature;BME280_humidity;BME280_pressure;Samples;Min_cycle;Max_cycle;Signal;HPM_P1;HPM_P2
2021/09/23 00:00:23;;;;;;;18.35;11.77;;;282.20;2278.40;;;;;;5117784;28;20481;-67
2021/09/23 00:03:09;;;;;;;20.33;11.73;;;282.20;2278.40;;;;;;5099492;28;20024;-67
2021/09/23 00:05:35;;;;;;;20.67;11.52;;;282.10;2278.40;;;;;;5117991;28;20199;-68
2021/09/23 00:08:02;;;;;;;20.73;11.82;;;282.10;2278.40;;;;;;5117712;28;20053;-68
2021/09/23 00:10:31;;;;;;;20.42;11.60;;;282.00;2278.40;;;;;;5117638;28;20036;-69
2021/09/23 00:12:57;;;;;;;18.45;11.35;;;282.00;2278.40;;;;;;5117969;28;20038;-67
2021/09/23 00:15:24;;;;;;;22.33;11.77;;;282.00;2278.40;;;;;;5099397;28;20027;-67
2021/09/23 00:17:56;;;;;;;21.05;10.45;;;282.00;2278.40;;;;;;5117415;28;20095;-68
2021/09/23 00:20:25;;;;;;;20.95;11.40;;;281.90;2278.40;;;;;;5117505;28;20027;-68
2021/09/23 00:22:51;;;;;;;19.70;11.32;;;281.90;2278.40;;;;;;5117399;28;20051;-67
2021/09/23 00:25:18;;;;;;;19.10;11.60;;;281.90;2278.40;;;;;;5117623;28;20035;-68
2021/09/23 00:27:45;;;;;;;17.67;11.10;;;281.90;2278.40;;;;;;5117130;28;20031;-68
2021/09/23 00:30:11;;;;;;;24.00;12.02;;;281.90;2278.40;;;;;;5117632;28;20077;-68
2021/09/23 00:32:37;;;;;;;22.30;12.13;;;281.80;2278.40;;;;;;5117121;28;20103;-68
2021/09/23 00:35:05;;;;;;;22.92;12.90;;;281.80;2278.40;;;;;;5117234;28;20102;-68
2021/09/23 00:37:31;;;;;;;24.33;13.70;;;281.80;2278.40;;;;;;5117040;28;20073;-68
2021/09/23 00:39:57;;;;;;;21.98;12.18;;;281.80;2278.40;;;;;;5116867;28;20024;-68
2021/09/23 00:42:22;;;;;;;22.48;12.02;;;281.70;2278.40;;;;;;5117070;28;20031;-67
2021/09/23 00:45:00;;;;;;;17.38;10.93;;;281.70;2278.40;;;;;;5117141;28;20092;-68
2021/09/23 00:47:27;;;;;;;18.67;11.07;;;281.70;2278.40;;;;;;5117039;28;20034;-68
2021/09/23 00:49:53;;;;;;;20.25;11.30;;;281.80;2278.40;;;;;;5116916;28;20489;-68
2021/09/23 00:52:25;;;;;;;22.58;11.63;;;281.70;2278.40;;;;;;5116811;28;20023;-67
2021/09/23 00:54:51;;;;;;;20.63;11.93;;;281.60;2278.40;;;;;;5115638;28;20055;-68
2021/09/23 00:57:21;;;;;;;24.63;13.95;;;281.60;2278.40;;;;;;5098108;28;20070;-68
2021/09/23 00:59:48;;;;;;;22.92;13.40;;;281.60;2278.40;;;;;;5116617;28;20039;-68
2021/09/23 01:02:15;;;;;;;27.38;16.20;;;281.60;2278.40;;;;;;5116537;28;20107;-67
2021/09/23 01:04:44;;;;;;;24.33;14.52;;;281.60;2278.40;;;;;;5116624;28;20038;-67
2021/09/23 01:07:16;;;;;;;25.35;16.33;;;281.60;2278.40;;;;;;5116440;28;20370;-68
2021/09/23 01:09:46;;;;;;;32.40;22.13;;;281.60;2278.40;;;;;;5116499;28;20165;-68
2021/09/23 01:12:13;;;;;;;29.73;19.20;;;256.90;2252.80;;;;;;5116407;28;20359;-68
2021/09/23 01:14:39;;;;;;;28.88;17.50;;;256.90;2252.80;;;;;;5116605;28;20034;-68
2021/09/23 01:17:05;;;;;;;22.05;12.88;;;256.90;2252.80;;;;;;5116343;28;20024;-65
2021/09/23 01:19:32;;;;;;;21.27;12.13;;;256.90;2252.80;;;;;;5116337;28;20038;-65
2021/09/23 01:21:58;;;;;;;22.60;11.60;;;256.90;2252.80;;;;;;5116022;28;20042;-65
2021/09/23 01:24:25;;;;;;;20.65;11.95;;;256.80;2252.80;;;;;;5116715;28;20031;-65
2021/09/23 01:26:50;;;;;;;21.10;12.27;;;256.80;2252.80;;;;;;5116333;28;20119;-65
2021/09/23 01:29:17;;;;;;;24.83;12.80;;;256.80;2252.80;;;;;;5116024;28;20106;-65
2021/09/23 01:31:44;;;;;;;21.25;12.10;;;256.80;2252.80;;;;;;5116165;28;20027;-65
2021/09/23 01:34:10;;;;;;;21.55;12.25;;;256.80;2252.80;;;;;;5115867;28;20023;-64
2021/09/23 01:36:36;;;;;;;19.48;11.73;;;256.70;2252.80;;;;;;5115878;28;20027;-66
2021/09/23 01:39:02;;;;;;;21.48;12.00;;;256.70;2252.80;;;;;;5115988;28;20492;-68
2021/09/23 01:41:28;;;;;;;19.48;11.25;;;256.70;2252.80;;;;;;5115425;28;20053;-69
2021/09/23 01:43:53;;;;;;;19.50;10.73;;;256.70;2252.80;;;;;;5115913;28;20125;-68
2021/09/23 01:46:19;;;;;;;22.27;12.23;;;256.70;2252.80;;;;;;5115840;28;20492;-68
2021/09/23 01:48:45;;;;;;;22.05;11.85;;;256.70;2252.80;;;;;;5115541;28;20027;-68
2021/09/23 01:51:11;;;;;;;22.05;11.93;;;256.70;2252.80;;;;;;5115520;28;20020;-68
2021/09/23 01:53:36;;;;;;;21.20;11.80;;;256.70;2252.80;;;;;;5115835;28;20031;-69
2021/09/23 01:56:04;;;;;;;24.80;12.35;;;256.60;2252.80;;;;;;5097415;28;20114;-68
2021/09/23 01:58:30;;;;;;;21.00;11.60;;;256.60;2252.80;;;;;;5115608;28;20030;-69
2021/09/23 02:00:56;;;;;;;21.73;12.15;;;256.60;2252.80;;;;;;5114996;28;20036;-68
2021/09/23 02:03:21;;;;;;;22.70;12.18;;;256.60;2252.80;;;;;;5115261;28;20103;-68
2021/09/23 02:05:47;;;;;;;22.08;12.10;;;256.60;2252.80;;;;;;5115115;28;20031;-68
2021/09/23 02:08:13;;;;;;;22.02;12.20;;;256.60;2252.80;;;;;;5115342;28;20047;-69
2021/09/23 02:10:39;;;;;;;23.33;12.10;;;256.50;2252.80;;;;;;5115208;28;20104;-68
2021/09/23 02:13:05;;;;;;;21.33;11.13;;;256.50;2252.80;;;;;;5115301;28;20100;-68
2021/09/23 02:15:30;;;;;;;21.58;12.25;;;256.50;2252.80;;;;;;5115238;28;20031;-68
2021/09/23 02:17:56;;;;;;;20.55;12.23;;;256.50;2252.80;;;;;;5115249;28;20022;-68
2021/09/23 02:20:24;;;;;;;23.55;12.25;;;256.50;2252.80;;;;;;5114834;28;20039;-68
2021/09/23 02:22:49;;;;;;;22.38;12.50;;;256.50;2252.80;;;;;;5114980;28;20047;-68
2021/09/23 02:25:15;;;;;;;21.38;11.02;;;256.40;2252.80;;;;;;5115326;28;20050;-68
2021/09/23 02:27:44;;;;;;;23.67;12.07;;;256.40;2252.80;;;;;;5115041;28;20053;-68
2021/09/23 02:30:13;;;;;;;21.73;11.02;;;256.40;2252.80;;;;;;5115046;28;20422;-67
2021/09/23 02:32:39;;;;;;;20.85;11.20;;;256.40;2252.80;;;;;;5114877;28;20028;-65
2021/09/23 02:35:07;;;;;;;20.80;11.82;;;256.50;2252.80;;;;;;5115055;28;20035;-68
2021/09/23 02:37:33;;;;;;;21.67;11.65;;;256.40;2252.80;;;;;;5115052;28;20027;-66
2021/09/23 02:39:59;;;;;;;23.15;12.75;;;256.40;2252.80;;;;;;5096427;28;20024;-66
2021/09/23 02:42:25;;;;;;;23.33;12.23;;;256.40;2252.80;;;;;;5114934;28;20107;-66
2021/09/23 02:44:52;;;;;;;22.48;12.65;;;256.40;2252.80;;;;;;5114728;28;20030;-66
2021/09/23 02:47:18;;;;;;;23.25;11.93;;;256.30;2252.80;;;;;;5114821;28;20062;-66
2021/09/23 02:49:44;;;;;;;25.25;12.23;;;256.30;2252.80;;;;;;5114612;28;20381;-66
2021/09/23 02:52:10;;;;;;;25.70;13.20;;;256.20;2252.80;;;;;;5114259;28;20020;-66
2021/09/23 02:54:36;;;;;;;23.67;12.82;;;256.20;2252.80;;;;;;5114759;28;20031;-66
2021/09/23 02:57:02;;;;;;;29.85;14.35;;;256.20;2252.80;;;;;;5114173;28;20051;-66
2021/09/23 02:59:28;;;;;;;30.38;14.80;;;256.10;2252.80;;;;;;5114217;28;20487;-66
2021/09/23 03:01:53;;;;;;;27.58;14.13;;;256.10;2252.80;;;;;;5114921;28;20020;-66
2021/09/23 03:04:19;;;;;;;30.63;14.18;;;256.10;2252.80;;;;;;5114454;28;20438;-66
2021/09/23 03:06:45;;;;;;;26.25;14.05;;;256.10;2252.80;;;;;;5114283;28;20076;-66
2021/09/23 03:09:11;;;;;;;25.70;13.00;;;256.10;2252.80;;;;;;5113820;28;20035;-65
2021/09/23 03:11:37;;;;;;;24.52;12.40;;;256.20;2252.80;;;;;;5114253;28;20020;-66
2021/09/23 03:14:03;;;;;;;23.27;12.32;;;256.10;2252.80;;;;;;5114425;28;20106;-66
2021/09/23 03:16:29;;;;;;;22.50;12.38;;;256.10;2252.80;;;;;;5114234;28;20485;-66
2021/09/23 03:18:55;;;;;;;22.52;12.10;;;256.10;2252.80;;;;;;5113605;28;20562;-66
2021/09/23 03:21:20;;;;;;;25.15;12.63;;;256.10;2252.80;;;;;;5114123;28;20048;-66
2021/09/23 03:23:47;;;;;;;27.92;12.85;;;256.00;2252.80;;;;;;5114077;28;20020;-66
2021/09/23 03:26:13;;;;;;;23.58;11.95;;;256.00;2252.80;;;;;;5114072;28;20072;-66
2021/09/23 03:28:39;;;;;;;22.02;11.70;;;256.00;2252.80;;;;;;5114221;28;20404;-66
2021/09/23 03:31:06;;;;;;;21.08;11.50;;;231.30;2252.80;;;;;;5114171;28;20035;-66
2021/09/23 03:33:31;;;;;;;17.00;10.10;;;231.30;2252.80;;;;;;5113882;28;20496;-66
2021/09/23 03:35:57;;;;;;;16.73;10.00;;;231.20;2252.80;;;;;;5113905;28;20027;-66
2021/09/23 03:38:23;;;;;;;19.88;11.13;;;231.20;2252.80;;;;;;5113806;28;20065;-66
2021/09/23 03:40:50;;;;;;;21.38;11.70;;;231.20;2252.80;;;;;;5114120;28;20034;-66
2021/09/23 03:43:17;;;;;;;19.50;10.73;;;231.10;2252.80;;;;;;5113928;28;20032;-66
2021/09/23 03:45:43;;;;;;;21.52;10.82;;;231.10;2252.80;;;;;;5114249;28;20032;-66
2021/09/23 03:48:09;;;;;;;21.38;11.35;;;231.10;2252.80;;;;;;5113884;28;20023;-66
2021/09/23 03:50:35;;;;;;;21.73;10.95;;;231.10;2252.80;;;;;;5114000;28;20040;-66
2021/09/23 03:53:01;;;;;;;18.40;10.32;;;231.10;2252.80;;;;;;5106774;28;20028;-66
2021/09/23 03:55:26;;;;;;;18.10;10.70;;;231.00;2252.80;;;;;;5093138;28;20032;-66
2021/09/23 03:57:52;;;;;;;21.88;11.68;;;231.00;2252.80;;;;;;5091347;28;20102;-65
2021/09/23 04:00:20;;;;;;;20.88;11.02;;;230.90;2252.80;;;;;;5093106;28;20465;-65
2021/09/23 04:02:47;;;;;;;22.67;10.93;;;230.90;2252.80;;;;;;5093189;28;20157;-65
2021/09/23 04:05:13;;;;;;;21.52;11.77;;;231.00;2252.80;;;;;;5075173;28;20424;-64
2021/09/23 04:07:39;;;;;;;19.70;10.95;;;230.90;2252.80;;;;;;5093111;28;20112;-64
2021/09/23 04:10:07;;;;;;;27.30;12.30;;;230.90;2252.80;;;;;;5093350;28;20040;-64
2021/09/23 04:12:34;;;;;;;23.27;12.40;;;230.90;2252.80;;;;;;5093404;28;20035;-65
2021/09/23 04:14:59;;;;;;;25.52;12.80;;;230.90;2252.80;;;;;;5093168;28;20020;-64
2021/09/23 04:17:25;;;;;;;25.95;13.60;;;230.80;2252.80;;;;;;5093042;28;20031;-64
2021/09/23 04:19:51;;;;;;;22.73;12.77;;;230.80;2252.80;;;;;;5092588;28;20057;-65
2021/09/23 04:22:18;;;;;;;25.15;12.65;;;230.80;2252.80;;;;;;5092638;28;20393;-64
2021/09/23 04:24:44;;;;;;;24.10;13.70;;;230.90;2252.80;;;;;;5093100;28;20500;-65
2021/09/23 04:27:09;;;;;;;25.67;12.85;;;230.90;2252.80;;;;;;5092942;28;20099;-65
2021/09/23 04:29:35;;;;;;;26.63;13.77;;;230.80;2252.80;;;;;;5094589;28;20043;-64
2021/09/23 04:32:01;;;;;;;28.23;14.50;;;230.80;2252.80;;;;;;5096759;28;20095;-64
2021/09/23 04:34:27;;;;;;;26.02;13.57;;;230.80;2252.80;;;;;;5096758;28;20145;-65
2021/09/23 04:36:53;;;;;;;24.25;13.20;;;230.80;2252.80;;;;;;5095770;28;20081;-64
2021/09/23 04:39:18;;;;;;;28.27;13.23;;;230.80;2252.80;;;;;;5096687;28;20024;-65
2021/09/23 04:41:45;;;;;;;22.92;13.13;;;230.80;2252.80;;;;;;5096711;28;20046;-65
2021/09/23 04:44:11;;;;;;;23.02;12.82;;;230.90;2252.80;;;;;;5096306;28;20438;-66
2021/09/23 04:46:37;;;;;;;24.48;13.80;;;230.90;2252.80;;;;;;5096545;28;20074;-66
2021/09/23 04:49:03;;;;;;;20.17;12.30;;;231.00;2252.80;;;;;;5096351;28;20039;-66
2021/09/23 04:51:28;;;;;;;21.33;12.13;;;231.00;2252.80;;;;;;5096474;28;20103;-66
2021/09/23 04:53:55;;;;;;;19.42;12.18;;;231.00;2252.80;;;;;;5095995;28;20024;-65
2021/09/23 04:56:21;;;;;;;19.13;11.70;;;231.10;2252.80;;;;;;5096322;28;20496;-65
2021/09/23 04:58:47;;;;;;;21.73;11.18;;;231.20;2252.80;;;;;;5096551;28;20032;-66
2021/09/23 05:01:13;;;;;;;19.52;10.93;;;231.30;2252.80;;;;;;5096311;28;20507;-65
2021/09/23 05:03:39;;;;;;;18.33;11.15;;;231.30;2252.80;;;;;;5096063;28;20036;-66
2021/09/23 05:06:06;;;;;;;20.08;12.02;;;256.00;2252.80;;;;;;5096134;28;20151;-65
2021/09/23 05:08:31;;;;;;;20.67;12.00;;;256.00;2252.80;;;;;;5095656;28;20181;-66
2021/09/23 05:10:57;;;;;;;20.65;11.82;;;256.00;2252.80;;;;;;5095676;28;20521;-66
2021/09/23 05:13:23;;;;;;;21.35;12.25;;;256.10;2252.80;;;;;;5096301;28;20057;-65
2021/09/23 05:15:49;;;;;;;19.52;11.43;;;256.00;2252.80;;;;;;5093479;28;20035;-65
2021/09/23 05:18:15;;;;;;;22.77;12.50;;;256.00;2252.80;;;;;;5095831;28;20024;-65
2021/09/23 05:20:41;;;;;;;20.05;11.88;;;256.00;2252.80;;;;;;5095565;28;20431;-65
2021/09/23 05:23:07;;;;;;;21.27;12.48;;;256.00;2252.80;;;;;;5095674;28;20038;-65
2021/09/23 05:25:33;;;;;;;24.42;13.55;;;256.00;2252.80;;;;;;5095034;28;20028;-66
2021/09/23 05:27:59;;;;;;;24.40;12.98;;;256.00;2252.80;;;;;;5094741;28;20027;-66
2021/09/23 05:30:25;;;;;;;26.75;14.18;;;256.10;2252.80;;;;;;5095353;28;20032;-65
2021/09/23 05:32:53;;;;;;;22.90;14.00;;;256.20;2252.80;;;;;;5095554;28;20095;-66
2021/09/23 05:35:19;;;;;;;23.17;13.90;;;256.30;2252.80;;;;;;5095411;28;20390;-65
2021/09/23 05:37:45;;;;;;;24.60;14.18;;;256.40;2252.80;;;;;;5095302;28;20030;-66
2021/09/23 05:40:11;;;;;;;24.25;14.88;;;256.50;2252.80;;;;;;5095524;28;20117;-66
2021/09/23 05:42:38;;;;;;;25.00;13.63;;;256.60;2252.80;;;;;;5095218;28;20494;-65
2021/09/23 05:45:06;;;;;;;23.08;13.60;;;256.60;2252.80;;;;;;5095660;28;20024;-65
2021/09/23 05:47:34;;;;;;;27.60;13.82;;;256.80;2252.80;;;;;;5095460;28;20025;-65
2021/09/23 05:50:00;;;;;;;22.85;13.35;;;256.90;2252.80;;;;;;5092062;28;20029;-71
2021/09/23 05:52:25;;;;;;;23.83;14.95;;;281.60;2278.40;;;;;;5094839;28;20051;-66
2021/09/23 05:54:51;;;;;;;25.65;15.70;;;281.70;2278.40;;;;;;5095152;28;20107;-70
2021/09/23 05:57:22;;;;;;;35.05;21.73;;;281.90;2278.40;;;;;;5094763;28;20023;-70
2021/09/23 05:59:49;;;;;;;31.05;19.58;;;281.90;2278.40;;;;;;5095024;28;20032;-67
2021/09/23 06:02:15;;;;;;;24.40;15.20;;;282.10;2278.40;;;;;;5095114;28;20051;-71
2021/09/23 06:04:41;;;;;;;28.63;17.20;;;282.20;2278.40;;;;;;5094418;28;20024;-70
2021/09/23 06:07:07;;;;;;;27.17;16.67;;;282.20;2278.40;;;;;;5090977;28;20460;-65
2021/09/23 06:09:32;;;;;;;23.13;13.68;;;282.30;2278.40;;;;;;5091514;28;20065;-70
2021/09/23 06:11:58;;;;;;;22.58;14.48;;;282.40;2278.40;;;;;;5092578;28;20039;-69
2021/09/23 06:14:24;;;;;;;19.45;13.30;;;282.40;2278.40;;;;;;5092181;28;20111;-67
2021/09/23 06:16:50;;;;;;;21.15;13.38;;;307.20;2304.00;;;;;;5092614;28;20062;-69
2021/09/23 06:19:15;;;;;;;21.13;13.98;;;307.40;2304.00;;;;;;5092604;28;20036;-69
2021/09/23 06:21:41;;;;;;;19.23;13.07;;;307.60;2304.00;;;;;;5091226;28;20048;-66
2021/09/23 06:24:07;;;;;;;16.17;11.32;;;307.70;2304.00;;;;;;5092797;28;20024;-64
2021/09/23 06:26:34;;;;;;;19.42;12.27;;;307.80;2304.00;;;;;;5091869;28;20056;-66
2021/09/23 06:28:59;;;;;;;17.45;11.48;;;307.90;2304.00;;;;;;5092778;28;20047;-66
2021/09/23 06:31:26;;;;;;;16.40;10.40;;;332.80;2329.60;;;;;;5091952;28;20036;-64
2021/09/23 06:33:52;;;;;;;17.13;11.45;;;333.50;2329.60;;;;;;5092736;28;20083;-67
2021/09/23 06:36:18;;;;;;;13.55;9.30;;;384.00;2329.60;;;;;;5091925;28;20115;-65
2021/09/23 06:38:44;;;;;;;15.13;10.68;;;409.90;2355.20;;;;;;5091943;28;20120;-68
2021/09/23 06:41:12;;;;;;;13.15;9.77;;;461.00;2380.80;;;;;;5092428;28;20539;-69
2021/09/23 06:43:39;;;;;;;13.75;9.98;;;486.90;2278.40;;;;;;5091860;28;20028;-69
2021/09/23 06:46:06;;;;;;;11.80;9.82;;;512.80;2124.80;;;;;;5092757;28;20055;-67
2021/09/23 06:48:32;;;;;;;10.95;9.27;;;563.60;1920.00;;;;;;5091482;28;20028;-67
2021/09/23 06:50:57;;;;;;;10.95;9.32;;;589.40;1689.60;;;;;;5091699;28;20093;-69
2021/09/23 06:53:23;;;;;;;11.77;9.52;;;614.90;1587.20;;;;;;5072489;28;20416;-69
2021/09/23 06:55:49;;;;;;;10.48;9.23;;;640.50;1433.60;;;;;;5092194;28;20028;-67
2021/09/23 06:58:14;;;;;;;11.80;10.00;;;665.90;1382.40;;;;;;5092458;28;20016;-67
2021/09/23 07:00:40;;;;;;;9.90;8.88;;;691.40;1305.60;;;;;;5085085;28;20012;-68
2021/09/23 07:03:06;;;;;;;10.43;9.30;;;716.80;1228.80;;;;;;5091047;28;20024;-68
2021/09/23 07:05:32;;;;;;;10.52;9.40;;;717.30;1177.60;;;;;;5090179;28;20032;-65
2021/09/23 07:07:58;;;;;;;12.15;9.80;;;742.90;1100.80;;;;;;5091844;28;20039;-67
2021/09/23 07:10:24;;;;;;;11.38;9.43;;;742.90;1100.80;;;;;;5091182;28;20044;-67
2021/09/23 07:12:49;;;;;;;14.40;9.50;;;692.00;1126.40;;;;;;5091898;28;20024;-69
2021/09/23 07:15:15;;;;;;;;;;;691.20;1152.00;;;;;;5092349;28;20112;-68
2021/09/23 07:17:41;;;;;;;;;;;640.60;1254.40;;;;;;5091217;28;19919;-66
2021/09/23 07:20:07;;;;;;;;;;;640.00;1305.60;;;;;;5091554;28;19911;-63
2021/09/23 07:22:32;;;;;;;11.40;9.80;;;614.70;1356.80;;;;;;5090345;28;19916;-65
2021/09/23 07:24:58;;;;;;;11.80;9.37;;;589.10;1433.60;;;;;;5091800;28;20032;-63
2021/09/23 07:27:24;;;;;;;11.75;9.95;;;563.60;1510.40;;;;;;5090620;28;20028;-65
2021/09/23 07:29:50;;;;;;;13.57;10.70;;;538.20;1536.00;;;;;;5091591;28;20043;-64
2021/09/23 07:32:16;;;;;;;13.45;10.05;;;512.90;1612.80;;;;;;5091622;28;20500;-65
2021/09/23 07:34:42;;;;;;;12.02;9.82;;;512.40;1664.00;;;;;;5090703;28;20550;-64
2021/09/23 07:37:08;;;;;;;16.02;10.40;;;486.60;1792.00;;;;;;5091527;28;20035;-64
2021/09/23 07:39:35;;;;;;;15.48;10.60;;;461.40;1945.60;;;;;;5072193;28;20020;-63
2021/09/23 07:42:01;;;;;;;13.90;11.05;;;461.40;1945.60;;;;;;5088470;28;20040;-63
2021/09/23 07:44:27;;;;;;;14.93;10.35;;;461.50;1996.80;;;;;;5090694;28;20029;-64
2021/09/23 07:46:55;;;;;;;14.52;9.60;;;461.50;1920.00;;;;;;5091300;28;20401;-64
2021/09/23 07:49:21;;;;;;;17.42;10.70;;;461.40;1945.60;;;;;;5091060;28;20043;-64
2021/09/23 07:51:47;;;;;;;13.70;9.70;;;461.60;2022.40;;;;;;5090437;28;20043;-62
2021/09/23 07:54:13;;;;;;;12.35;9.10;;;486.50;2022.40;;;;;;5091696;28;20034;-65
2021/09/23 07:56:39;;;;;;;11.13;9.18;;;512.40;1920.00;;;;;;5090476;28;20038;-63
2021/09/23 07:59:05;;;;;;;11.45;9.25;;;563.20;1792.00;;;;;;5091841;28;20024;-66
2021/09/23 08:01:33;;;;;;;11.57;8.50;;;589.50;1587.20;;;;;;5089190;28;20085;-65
2021/09/23 08:03:58;;;;;;;10.30;8.77;;;640.20;1433.60;;;;;;5089972;28;20764;-64
2021/09/23 08:06:24;;;;;;;9.55;8.63;;;666.50;1280.00;;;;;;5093068;28;20066;-63
2021/09/23 08:08:53;;;;;;;12.30;11.00;;;691.80;1177.60;;;;;;5075715;28;20067;-66
2021/09/23 08:11:19;;;;;;;11.40;9.93;;;742.50;1152.00;;;;;;5072557;28;20081;-64
2021/09/23 08:13:45;;;;;;;9.60;8.60;;;768.40;1024.00;;;;;;5093387;28;20023;-64
2021/09/23 08:16:14;;;;;;;9.68;8.65;;;793.90;998.40;;;;;;5094447;28;20009;-64
2021/09/23 08:18:43;;;;;;;9.05;8.18;;;819.20;947.20;;;;;;5090381;28;20497;-65
2021/09/23 08:21:10;;;;;;;8.40;7.60;;;845.10;870.40;;;;;;5093580;28;20067;-65
2021/09/23 08:23:36;;;;;;;8.77;7.88;;;845.20;844.80;;;;;;5074762;28;20543;-66
2021/09/23 08:26:03;;;;;;;9.43;8.43;;;794.30;921.60;;;;;;5093905;28;20016;-66
2021/09/23 08:28:31;;;;;;;8.52;7.47;;;768.80;947.20;;;;;;5093305;28;20235;-65
2021/09/23 08:30:58;;;;;;;;;;;743.00;998.40;;;;;;5094520;28;20040;-64
2021/09/23 08:33:26;;;;;;;9.02;8.13;;;717.00;1049.60;;;;;;5092769;28;20318;-63
2021/09/23 08:35:52;;;;;;;9.55;8.52;;;691.70;1049.60;;;;;;5093086;28;20049;-62
2021/09/23 08:38:19;;;;;;;11.23;9.00;;;665.80;1152.00;;;;;;5093257;28;20123;-61
2021/09/23 08:40:50;;;;;;;10.68;8.70;;;640.60;1177.60;;;;;;5092533;28;20569;-62
2021/09/23 08:43:16;;;;;;;10.82;9.15;;;640.00;1203.20;;;;;;5093147;28;20077;-63
2021/09/23 08:45:43;;;;;;;9.80;8.70;;;615.30;1280.00;;;;;;5092435;28;20016;-64
2021/09/23 08:48:10;;;;;;;10.25;8.90;;;614.70;1331.20;;;;;;5093540;28;20504;-63
2021/09/23 08:50:36;;;;;;;12.50;9.85;;;614.50;1305.60;;;;;;5073412;28;20044;-62
2021/09/23 08:53:03;;;;;;;13.13;10.55;;;589.70;1356.80;;;;;;5093905;28;20044;-63
2021/09/23 08:55:30;;;;;;;11.63;9.43;;;589.40;1433.60;;;;;;5092785;28;20032;-63
2021/09/23 08:57:59;;;;;;;13.25;10.57;;;588.90;1408.00;;;;;;5094138;28;20373;-62
2021/09/23 09:00:25;;;;;;;15.02;10.77;;;564.00;1459.20;;;;;;5093679;28;20020;-62
2021/09/23 09:03:08;;;;;;;11.55;9.23;;;563.50;1536.00;;;;;;5094328;28;20638;-63
2021/09/23 09:05:37;;;;;;;10.68;8.80;;;563.20;1510.40;;;;;;5093220;28;20358;-62
2021/09/23 09:08:05;;;;;;;12.43;10.55;;;563.30;1510.40;;;;;;5093853;28;20056;-63
2021/09/23 09:10:32;;;;;;;15.48;9.63;;;563.50;1484.80;;;;;;5093381;28;20036;-65
2021/09/23 09:13:04;;;;;;;10.13;8.68;;;563.50;1459.20;;;;;;5094028;28;20397;-64
2021/09/23 09:15:33;;;;;;;10.52;8.68;;;563.40;1433.60;;;;;;5092552;28;20028;-62
2021/09/23 09:18:11;;;;;;;9.80;8.50;;;538.20;1408.00;;;;;;5075302;28;20032;-63
2021/09/23 09:20:53;;;;;;;12.55;9.45;;;537.90;1459.20;;;;;;5092699;28;20047;-62
2021/09/23 09:23:20;;;;;;;15.00;8.95;;;537.80;1510.40;;;;;;5093837;28;20038;-62
2021/09/23 09:25:46;;;;;;;10.07;8.55;;;537.60;1510.40;;;;;;5092757;28;20027;-62
2021/09/23 09:28:13;;;;;;;9.65;8.50;;;537.60;1536.00;;;;;;5093654;28;20074;-63
2021/09/23 09:30:38;;;;;;;10.98;8.48;;;537.70;1536.00;;;;;;5092801;28;20039;-63
2021/09/23 09:33:05;;;;;;;10.38;8.63;;;537.70;1536.00;;;;;;5093074;28;20558;-64
2021/09/23 09:35:36;;;;;;;10.80;8.25;;;537.90;1536.00;;;;;;5093054;28;20035;-63
2021/09/23 09:38:06;;;;;;;15.43;11.68;;;538.00;1459.20;;;;;;5093433;28;20024;-63
2021/09/23 09:40:34;;;;;;;16.65;12.40;;;563.20;1484.80;;;;;;5092812;28;20027;-64
2021/09/23 09:43:07;;;;;;;10.85;8.77;;;563.40;1510.40;;;;;;5093347;28;20539;-64
2021/09/23 09:45:33;;;;;;;11.00;8.50;;;564.10;1459.20;;;;;;5092606;28;20031;-62
2021/09/23 09:48:02;;;;;;;9.68;8.05;;;588.80;1408.00;;;;;;5092481;28;20055;-63
2021/09/23 09:50:34;;;;;;;9.25;8.00;;;589.10;1408.00;;;;;;5092546;28;20390;-62
2021/09/23 09:53:09;;;;;;;9.60;7.85;;;589.00;1382.40;;;;;;5093216;28;20051;-63
2021/09/23 09:55:39;;;;;;;10.25;8.10;;;589.30;1356.80;;;;;;5092660;28;20078;-64
2021/09/23 09:58:07;;;;;;;11.48;8.88;;;589.60;1382.40;;;;;;5093174;28;20254;-63
2021/09/23 10:00:34;;;;;;;11.00;8.52;;;589.40;1408.00;;;;;;5092238;28;20058;-63
2021/09/23 10:03:00;;;;;;;9.73;7.55;;;589.40;1408.00;;;;;;5092447;28;20550;-62
2021/09/23 10:05:26;;;;;;;10.25;8.45;;;614.70;1305.60;;;;;;5092091;28;20130;-63
2021/09/23 10:07:55;;;;;;;9.70;8.20;;;640.50;1254.40;;;;;;5074068;28;20103;-62
2021/09/23 10:10:24;;;;;;;11.70;10.50;;;666.30;1152.00;;;;;;5092812;28;20036;-63
2021/09/23 10:12:55;;;;;;;24.70;19.73;;;691.50;1152.00;;;;;;5092597;28;20382;-63
2021/09/23 10:15:22;;;;;;;9.50;8.50;;;742.90;1049.60;;;;;;5092780;28;20448;-63
2021/09/23 10:17:49;;;;;;;8.00;7.00;;;794.00;947.20;;;;;;5091834;28;20036;-65
2021/09/23 10:20:23;;;;;;;8.13;7.32;;;819.50;896.00;;;;;;5092646;28;20028;-64
2021/09/23 10:22:50;;;;;;;7.55;6.82;;;845.20;870.40;;;;;;5092776;28;20121;-64
2021/09/23 10:25:19;;;;;;;6.90;5.40;;;871.30;819.20;;;;;;5093082;28;20030;-64
2021/09/23 10:28:03;;;;;;;5.95;5.30;;;870.40;793.60;;;;;;5091220;28;20028;-64
2021/09/23 10:30:36;;;;;;;8.80;5.47;;;922.00;716.80;;;;;;5091898;28;20485;-64
2021/09/23 10:33:03;;;;;;;6.33;5.73;;;972.90;665.60;;;;;;5091985;28;20031;-63
2021/09/23 10:35:30;;;;;;;7.80;7.05;;;998.60;614.40;;;;;;5091499;28;20059;-62
2021/09/23 10:38:05;;;;;;;8.45;7.65;;;998.90;614.40;;;;;;5091924;28;20032;-60
2021/09/23 10:40:33;;;;;;;15.68;14.23;;;999.10;537.60;;;;;;5091597;28;20048;-62
2021/09/23 10:43:07;;;;;;;6.00;5.47;;;999.20;537.60;;;;;;5073708;28;20545;-62
2021/09/23 10:45:35;;;;;;;4.57;4.10;;;1024.40;563.20;;;;;;5091980;28;20020;-62
2021/09/23 10:48:02;;;;;;;5.70;4.72;;;1050.40;537.60;;;;;;5091512;28;20482;-63
2021/09/23 10:50:35;;;;;;;4.57;4.13;;;1075.30;512.00;;;;;;5091196;28;20028;-63
2021/09/23 10:53:06;;;;;;;4.90;4.50;;;1075.70;486.40;;;;;;5073907;28;20047;-63
2021/09/23 10:55:35;;;;;;;4.43;4.03;;;1101.20;460.80;;;;;;5091192;28;20039;-63
2021/09/23 10:58:03;;;;;;;4.60;4.20;;;1075.70;486.40;;;;;;5091873;28;20059;-63
2021/09/23 11:00:32;;;;;;;4.50;4.10;;;1075.20;486.40;;;;;;5091187;28;20044;-63
2021/09/23 11:03:06;;;;;;;5.05;4.55;;;1076.00;435.20;;;;;;5091466;28;20028;-64
2021/09/23 11:05:32;;;;;;;6.40;4.68;;;1075.60;460.80;;;;;;5090850;28;20024;-63
2021/09/23 11:08:00;;;;;;;6.10;4.95;;;1076.00;486.40;;;;;;5091669;28;20625;-64
2021/09/23 11:10:27;;;;;;;4.88;4.47;;;1076.00;460.80;;;;;;5089828;28;20043;-63
2021/09/23 11:12:58;;;;;;;5.40;4.90;;;1101.30;460.80;;;;;;5091784;28;20529;-63
2021/09/23 11:15:29;;;;;;;5.05;4.60;;;1101.50;435.20;;;;;;5092160;28;20492;-62
2021/09/23 11:17:56;;;;;;;7.15;5.05;;;1100.90;435.20;;;;;;5089680;28;20027;-64
2021/09/23 11:20:31;;;;;;;5.35;4.03;;;1101.00;460.80;;;;;;5091939;28;20031;-63
2021/09/23 11:23:00;;;;;;;4.50;4.10;;;1126.40;435.20;;;;;;5089405;28;20046;-63
2021/09/23 11:25:41;;;;;;;4.38;3.95;;;1075.80;460.80;;;;;;5092452;28;20019;-63
2021/09/23 11:28:07;;;;;;;4.35;3.95;;;1101.10;460.80;;;;;;5090779;28;20024;-63
2021/09/23 11:30:36;;;;;;;4.68;3.85;;;1075.70;435.20;;;;;;5089309;28;20139;-62
2021/09/23 11:33:07;;;;;;;3.97;3.60;;;1076.10;435.20;;;;;;5092261;28;20381;-62
2021/09/23 11:35:38;;;;;;;4.55;3.90;;;1075.30;460.80;;;;;;5089068;28;20566;-61
2021/09/23 11:38:06;;;;;;;3.97;3.50;;;1050.20;460.80;;;;;;5092175;28;20052;-62
2021/09/23 11:40:37;;;;;;;3.78;3.40;;;1050.30;460.80;;;;;;5095386;28;20081;-63
2021/09/23 11:43:07;;;;;;;4.60;4.20;;;1050.50;460.80;;;;;;5096073;28;20461;-61
2021/09/23 11:45:44;;;;;;;4.05;3.50;;;1049.70;486.40;;;;;;5093231;28;20020;-62
2021/09/23 11:48:14;;;;;;;3.80;3.50;;;1024.60;486.40;;;;;;5096022;28;20020;-64
2021/09/23 11:51:00;;;;;;;5.07;3.40;;;1050.50;460.80;;;;;;5077881;28;20032;-63
2021/09/23 11:53:27;;;;;;;4.45;3.38;;;1101.00;435.20;;;;;;5077088;28;20020;-62
2021/09/23 11:56:20;;;;;;;6.18;5.57;;;1126.40;435.20;;;;;;5093325;28;20020;-62
2021/09/23 11:58:49;;;;;;;4.50;4.10;;;1101.00;435.20;;;;;;5095148;28;20512;-62
2021/09/23 12:01:19;;;;;;;4.15;3.40;;;1049.70;486.40;;;;;;5093561;28;20020;-62
2021/09/23 12:03:48;;;;;;;3.72;3.40;;;1050.50;460.80;;;;;;5096441;28;20048;-62
2021/09/23 12:06:18;;;;;;;5.70;3.08;;;1076.10;409.60;;;;;;5077563;28;20027;-62